sensor_id;sensor_type;location;lat;lon;timestamp;P1;durP1;ratioP1;P2;durP2;ratioP2
45114;SDS011;30877;43.706;10.780;2023-03-05T00:01:11;9.73;;;6.63;;
45114;SDS011;30877;43.706;10.780;2023-03-05T00:03:41;9.38;;;6.80;;
45114;SDS011;30877;43.706;10.780;2023-03-05T00:06:11;9.98;;;6.70;;
45114;SDS011;30877;43.706;10.780;2023-03-05T00:08:39;10.30;;;6.80;;
45114;SDS011;30877;43.706;10.780;2023-03-05T00:11:08;10.55;;;6.55;;
45114;SDS011;30877;43.706;10.780;2023-03-05T00:13:38;9.45;;;6.82;;
45114;SDS011;30877;43.706;10.780;2023-03-05T00:16:07;11.63;;;7.70;;
45114;SDS011;30877;43.706;10.780;2023-03-05T00:18:37;12.05;;;7.72;;
45114;SDS011;30877;43.706;10.780;2023-03-05T00:21:12;13.18;;;8.10;;
45114;SDS011;30877;43.706;10.780;2023-03-05T00:23:49;12.32;;;8.73;;
45114;SDS011;30877;43.706;10.780;2023-03-05T00:26:19;15.73;;;8.50;;
45114;SDS011;30877;43.706;10.780;2023-03-05T00:28:48;11.65;;;7.50;;
45114;SDS011;30877;43.706;10.780;2023-03-05T00:31:19;13.27;;;8.10;;
45114;SDS011;30877;43.706;10.780;2023-03-05T00:33:49;12.35;;;8.27;;
45114;SDS011;30877;43.706;10.780;2023-03-05T00:36:24;14.98;;;8.40;;
45114;SDS011;30877;43.706;10.780;2023-03-05T00:38:54;12.75;;;8.57;;
45114;SDS011;30877;43.706;10.780;2023-03-05T00:41:22;14.20;;;8.45;;
45114;SDS011;30877;43.706;10.780;2023-03-05T00:43:50;11.93;;;8.20;;
45114;SDS011;30877;43.706;10.780;2023-03-05T00:46:19;12.68;;;8.55;;
45114;SDS011;30877;43.706;10.780;2023-03-05T00:48:48;13.35;;;8.05;;
45114;SDS011;30877;43.706;10.780;2023-03-05T00:51:17;12.10;;;8.05;;
45114;SDS011;30877;43.706;10.780;2023-03-05T00:53:47;14.25;;;8.50;;
45114;SDS011;30877;43.706;10.780;2023-03-05T00:56:15;15.77;;;8.23;;
45114;SDS011;30877;43.706;10.780;2023-03-05T00:58:43;12.00;;;8.77;;
45114;SDS011;30877;43.706;10.780;2023-03-05T01:01:12;12.93;;;8.32;;
45114;SDS011;30877;43.706;10.780;2023-03-05T01:03:40;14.18;;;8.85;;
45114;SDS011;30877;43.706;10.780;2023-03-05T01:06:11;13.93;;;8.57;;
45114;SDS011;30877;43.706;10.780;2023-03-05T01:08:41;12.68;;;7.88;;
45114;SDS011;30877;43.706;10.780;2023-03-05T01:11:11;12.70;;;7.97;;
45114;SDS011;30877;43.706;10.780;2023-03-05T01:13:40;14.63;;;8.07;;
45114;SDS011;30877;43.706;10.780;2023-03-05T01:16:08;15.18;;;8.57;;
45114;SDS011;30877;43.706;10.780;2023-03-05T01:18:37;15.43;;;8.57;;
45114;SDS011;30877;43.706;10.780;2023-03-05T01:21:06;15.25;;;8.45;;
45114;SDS011;30877;43.706;10.780;2023-03-05T01:23:35;16.10;;;8.75;;
45114;SDS011;30877;43.706;10.780;2023-03-05T01:26:04;11.95;;;7.72;;
45114;SDS011;30877;43.706;10.780;2023-03-05T01:28:34;14.07;;;8.30;;
45114;SDS011;30877;43.706;10.780;2023-03-05T01:31:07;11.85;;;7.53;;
45114;SDS011;30877;43.706;10.780;2023-03-05T01:33:37;13.82;;;7.65;;
45114;SDS011;30877;43.706;10.780;2023-03-05T01:36:06;13.10;;;7.68;;
45114;SDS011;30877;43.706;10.780;2023-03-05T01:38:38;12.80;;;7.05;;
45114;SDS011;30877;43.706;10.780;2023-03-05T01:41:07;10.95;;;6.22;;
45114;SDS011;30877;43.706;10.780;2023-03-05T01:43:37;8.70;;;5.65;;
45114;SDS011;30877;43.706;10.780;2023-03-05T01:46:25;11.00;;;5.25;;
45114;SDS011;30877;43.706;10.780;2023-03-05T01:48:58;9.10;;;5.30;;
45114;SDS011;30877;43.706;10.780;2023-03-05T01:51:31;6.90;;;4.40;;
45114;SDS011;30877;43.706;10.780;2023-03-05T01:54:03;9.18;;;4.55;;
45114;SDS011;30877;43.706;10.780;2023-03-05T01:56:33;7.68;;;4.80;;
45114;SDS011;30877;43.706;10.780;2023-03-05T01:59:03;7.40;;;3.92;;
45114;SDS011;30877;43.706;10.780;2023-03-05T02:01:33;7.82;;;4.65;;
45114;SDS011;30877;43.706;10.780;2023-03-05T02:04:05;8.07;;;4.53;;
45114;SDS011;30877;43.706;10.780;2023-03-05T02:06:34;5.88;;;4.18;;
45114;SDS011;30877;43.706;10.780;2023-03-05T02:09:03;7.35;;;4.55;;
45114;SDS011;30877;43.706;10.780;2023-03-05T02:11:31;7.35;;;4.38;;
45114;SDS011;30877;43.706;10.780;2023-03-05T02:14:00;7.78;;;4.40;;
45114;SDS011;30877;43.706;10.780;2023-03-05T02:16:31;7.80;;;4.28;;
45114;SDS011;30877;43.706;10.780;2023-03-05T02:19:03;6.70;;;4.63;;
45114;SDS011;30877;43.706;10.780;2023-03-05T02:21:38;6.88;;;4.38;;
45114;SDS011;30877;43.706;10.780;2023-03-05T02:24:10;6.45;;;4.40;;
45114;SDS011;30877;43.706;10.780;2023-03-05T02:26:39;7.88;;;4.85;;
45114;SDS011;30877;43.706;10.780;2023-03-05T02:29:09;9.90;;;5.15;;
45114;SDS011;30877;43.706;10.780;2023-03-05T02:31:41;7.55;;;4.40;;
45114;SDS011;30877;43.706;10.780;2023-03-05T02:34:11;8.95;;;4.68;;
45114;SDS011;30877;43.706;10.780;2023-03-05T02:36:41;6.70;;;4.32;;
45114;SDS011;30877;43.706;10.780;2023-03-05T02:39:10;7.28;;;4.30;;
45114;SDS011;30877;43.706;10.780;2023-03-05T02:41:38;6.68;;;4.75;;
45114;SDS011;30877;43.706;10.780;2023-03-05T02:44:07;7.47;;;4.85;;
45114;SDS011;30877;43.706;10.780;2023-03-05T02:46:35;9.27;;;5.55;;
45114;SDS011;30877;43.706;10.780;2023-03-05T02:49:03;11.05;;;6.03;;
45114;SDS011;30877;43.706;10.780;2023-03-05T02:51:32;10.80;;;6.35;;
45114;SDS011;30877;43.706;10.780;2023-03-05T02:54:01;8.88;;;5.97;;
45114;SDS011;30877;43.706;10.780;2023-03-05T02:56:30;10.13;;;5.95;;
45114;SDS011;30877;43.706;10.780;2023-03-05T02:59:00;9.05;;;6.45;;
45114;SDS011;30877;43.706;10.780;2023-03-05T03:01:28;9.80;;;6.05;;
45114;SDS011;30877;43.706;10.780;2023-03-05T03:03:56;12.10;;;7.35;;
45114;SDS011;30877;43.706;10.780;2023-03-05T03:06:24;15.45;;;8.48;;
45114;SDS011;30877;43.706;10.780;2023-03-05T03:08:53;13.32;;;8.43;;
45114;SDS011;30877;43.706;10.780;2023-03-05T03:11:23;19.77;;;9.32;;
45114;SDS011;30877;43.706;10.780;2023-03-05T03:13:51;13.82;;;8.07;;
45114;SDS011;30877;43.706;10.780;2023-03-05T03:16:19;11.95;;;7.90;;
45114;SDS011;30877;43.706;10.780;2023-03-05T03:18:47;12.80;;;8.02;;
45114;SDS011;30877;43.706;10.780;2023-03-05T03:21:16;10.85;;;6.82;;
45114;SDS011;30877;43.706;10.780;2023-03-05T03:23:45;10.63;;;7.07;;
45114;SDS011;30877;43.706;10.780;2023-03-05T03:26:13;11.52;;;7.07;;
45114;SDS011;30877;43.706;10.780;2023-03-05T03:28:43;13.60;;;7.72;;
45114;SDS011;30877;43.706;10.780;2023-03-05T03:31:11;12.48;;;7.30;;
45114;SDS011;30877;43.706;10.780;2023-03-05T03:33:39;11.05;;;6.80;;
45114;SDS011;30877;43.706;10.780;2023-03-05T03:36:08;10.50;;;6.90;;
45114;SDS011;30877;43.706;10.780;2023-03-05T03:38:36;9.82;;;6.63;;
45114;SDS011;30877;43.706;10.780;2023-03-05T03:41:04;10.18;;;6.97;;
45114;SDS011;30877;43.706;10.780;2023-03-05T03:43:33;9.20;;;6.63;;
45114;SDS011;30877;43.706;10.780;2023-03-05T03:46:04;10.93;;;6.47;;
45114;SDS011;30877;43.706;10.780;2023-03-05T03:48:33;8.82;;;5.95;;
45114;SDS011;30877;43.706;10.780;2023-03-05T03:51:03;10.98;;;6.15;;
45114;SDS011;30877;43.706;10.780;2023-03-05T03:53:32;8.43;;;5.82;;
45114;SDS011;30877;43.706;10.780;2023-03-05T03:56:00;8.82;;;6.97;;
45114;SDS011;30877;43.706;10.780;2023-03-05T03:58:34;7.90;;;5.50;;
45114;SDS011;30877;43.706;10.780;2023-03-05T04:01:04;11.23;;;6.15;;
45114;SDS011;30877;43.706;10.780;2023-03-05T04:03:32;11.95;;;6.30;;
45114;SDS011;30877;43.706;10.780;2023-03-05T04:06:00;11.70;;;5.85;;
45114;SDS011;30877;43.706;10.780;2023-03-05T04:08:28;9.30;;;6.55;;
45114;SDS011;30877;43.706;10.780;2023-03-05T04:10:56;8.48;;;6.03;;
45114;SDS011;30877;43.706;10.780;2023-03-05T04:13:26;9.73;;;6.28;;
45114;SDS011;30877;43.706;10.780;2023-03-05T04:15:54;9.55;;;5.97;;
45114;SDS011;30877;43.706;10.780;2023-03-05T04:18:24;11.50;;;7.07;;
45114;SDS011;30877;43.706;10.780;2023-03-05T04:20:52;9.93;;;6.63;;
45114;SDS011;30877;43.706;10.780;2023-03-05T04:23:20;10.85;;;6.57;;
45114;SDS011;30877;43.706;10.780;2023-03-05T04:25:48;11.05;;;6.13;;
45114;SDS011;30877;43.706;10.780;2023-03-05T04:28:16;8.48;;;5.35;;
45114;SDS011;30877;43.706;10.780;2023-03-05T04:30:44;9.25;;;5.90;;
45114;SDS011;30877;43.706;10.780;2023-03-05T04:33:12;12.43;;;5.90;;
45114;SDS011;30877;43.706;10.780;2023-03-05T04:35:42;10.68;;;6.05;;
45114;SDS011;30877;43.706;10.780;2023-03-05T04:38:10;9.38;;;5.28;;
45114;SDS011;30877;43.706;10.780;2023-03-05T04:40:38;10.18;;;5.63;;
45114;SDS011;30877;43.706;10.780;2023-03-05T04:43:06;12.05;;;6.50;;
45114;SDS011;30877;43.706;10.780;2023-03-05T04:45:34;9.57;;;6.30;;
45114;SDS011;30877;43.706;10.780;2023-03-05T04:48:03;9.27;;;6.18;;
45114;SDS011;30877;43.706;10.780;2023-03-05T04:50:31;10.05;;;5.82;;
45114;SDS011;30877;43.706;10.780;2023-03-05T04:53:09;10.98;;;6.80;;
45114;SDS011;30877;43.706;10.780;2023-03-05T04:55:37;9.48;;;6.10;;
45114;SDS011;30877;43.706;10.780;2023-03-05T04:58:05;10.73;;;6.75;;
45114;SDS011;30877;43.706;10.780;2023-03-05T05:00:33;10.80;;;6.22;;
45114;SDS011;30877;43.706;10.780;2023-03-05T05:03:01;8.02;;;5.65;;
45114;SDS011;30877;43.706;10.780;2023-03-05T05:05:29;10.30;;;5.93;;
45114;SDS011;30877;43.706;10.780;2023-03-05T05:07:57;10.23;;;5.97;;
45114;SDS011;30877;43.706;10.780;2023-03-05T05:10:27;7.97;;;5.95;;
45114;SDS011;30877;43.706;10.780;2023-03-05T05:12:55;9.80;;;6.28;;
45114;SDS011;30877;43.706;10.780;2023-03-05T05:15:23;10.55;;;6.78;;
45114;SDS011;30877;43.706;10.780;2023-03-05T05:17:51;11.85;;;6.60;;
45114;SDS011;30877;43.706;10.780;2023-03-05T05:20:19;10.43;;;7.13;;
45114;SDS011;30877;43.706;10.780;2023-03-05T05:22:47;11.82;;;6.88;;
45114;SDS011;30877;43.706;10.780;2023-03-05T05:25:15;12.52;;;6.60;;
45114;SDS011;30877;43.706;10.780;2023-03-05T05:27:45;9.82;;;6.57;;
45114;SDS011;30877;43.706;10.780;2023-03-05T05:30:13;10.73;;;6.47;;
45114;SDS011;30877;43.706;10.780;2023-03-05T05:32:41;11.30;;;6.70;;
45114;SDS011;30877;43.706;10.780;2023-03-05T05:35:09;9.98;;;6.32;;
45114;SDS011;30877;43.706;10.780;2023-03-05T05:37:37;9.10;;;6.28;;
45114;SDS011;30877;43.706;10.780;2023-03-05T05:40:06;10.70;;;6.03;;
45114;SDS011;30877;43.706;10.780;2023-03-05T05:42:35;9.38;;;5.80;;
45114;SDS011;30877;43.706;10.780;2023-03-05T05:45:05;11.27;;;6.22;;
45114;SDS011;30877;43.706;10.780;2023-03-05T05:47:34;8.98;;;5.80;;
45114;SDS011;30877;43.706;10.780;2023-03-05T05:50:03;8.82;;;5.45;;
45114;SDS011;30877;43.706;10.780;2023-03-05T05:52:31;10.07;;;6.10;;
45114;SDS011;30877;43.706;10.780;2023-03-05T05:54:59;9.35;;;5.95;;
45114;SDS011;30877;43.706;10.780;2023-03-05T05:57:27;14.38;;;6.35;;
45114;SDS011;30877;43.706;10.780;2023-03-05T06:00:15;10.07;;;5.88;;
45114;SDS011;30877;43.706;10.780;2023-03-05T06:02:44;9.57;;;6.18;;
45114;SDS011;30877;43.706;10.780;2023-03-05T06:05:12;17.63;;;9.90;;
45114;SDS011;30877;43.706;10.780;2023-03-05T06:07:41;30.15;;;12.60;;
45114;SDS011;30877;43.706;10.780;2023-03-05T06:10:10;19.35;;;10.32;;
45114;SDS011;30877;43.706;10.780;2023-03-05T06:12:38;14.73;;;8.75;;
45114;SDS011;30877;43.706;10.780;2023-03-05T06:15:06;11.70;;;7.45;;
45114;SDS011;30877;43.706;10.780;2023-03-05T06:17:36;13.23;;;7.60;;
45114;SDS011;30877;43.706;10.780;2023-03-05T06:20:05;37.40;;;23.25;;
45114;SDS011;30877;43.706;10.780;2023-03-05T06:22:34;86.95;;;49.85;;
45114;SDS011;30877;43.706;10.780;2023-03-05T06:25:03;71.75;;;42.88;;
45114;SDS011;30877;43.706;10.780;2023-03-05T06:27:33;71.25;;;42.13;;
45114;SDS011;30877;43.706;10.780;2023-03-05T06:30:01;41.17;;;24.00;;
45114;SDS011;30877;43.706;10.780;2023-03-05T06:32:29;30.67;;;18.48;;
45114;SDS011;30877;43.706;10.780;2023-03-05T06:34:59;24.77;;;15.00;;
45114;SDS011;30877;43.706;10.780;2023-03-05T06:37:27;18.98;;;11.32;;
45114;SDS011;30877;43.706;10.780;2023-03-05T06:40:00;16.65;;;10.10;;
45114;SDS011;30877;43.706;10.780;2023-03-05T06:42:29;12.32;;;7.97;;
45114;SDS011;30877;43.706;10.780;2023-03-05T06:44:57;11.98;;;7.55;;
45114;SDS011;30877;43.706;10.780;2023-03-05T06:47:25;9.52;;;6.63;;
45114;SDS011;30877;43.706;10.780;2023-03-05T06:49:53;23.35;;;14.48;;
45114;SDS011;30877;43.706;10.780;2023-03-05T06:52:23;40.13;;;23.13;;
45114;SDS011;30877;43.706;10.780;2023-03-05T06:54:51;35.78;;;23.10;;
45114;SDS011;30877;43.706;10.780;2023-03-05T06:57:21;42.92;;;25.67;;
45114;SDS011;30877;43.706;10.780;2023-03-05T06:59:49;36.70;;;23.13;;
45114;SDS011;30877;43.706;10.780;2023-03-05T07:02:18;27.30;;;16.40;;
45114;SDS011;30877;43.706;10.780;2023-03-05T07:04:45;22.92;;;14.68;;
45114;SDS011;30877;43.706;10.780;2023-03-05T07:07:13;17.88;;;12.15;;
45114;SDS011;30877;43.706;10.780;2023-03-05T07:09:43;16.38;;;11.10;;
45114;SDS011;30877;43.706;10.780;2023-03-05T07:12:11;13.50;;;9.10;;
45114;SDS011;30877;43.706;10.780;2023-03-05T07:14:39;13.20;;;8.75;;
45114;SDS011;30877;43.706;10.780;2023-03-05T07:17:07;11.65;;;7.78;;
45114;SDS011;30877;43.706;10.780;2023-03-05T07:19:36;11.23;;;7.90;;
45114;SDS011;30877;43.706;10.780;2023-03-05T07:22:05;13.05;;;7.75;;
45114;SDS011;30877;43.706;10.780;2023-03-05T07:24:33;10.25;;;7.03;;
45114;SDS011;30877;43.706;10.780;2023-03-05T07:27:03;11.30;;;6.82;;
45114;SDS011;30877;43.706;10.780;2023-03-05T07:29:31;9.95;;;6.80;;
45114;SDS011;30877;43.706;10.780;2023-03-05T07:31:58;9.95;;;6.40;;
45114;SDS011;30877;43.706;10.780;2023-03-05T07:34:26;9.05;;;6.22;;
45114;SDS011;30877;43.706;10.780;2023-03-05T07:36:54;8.95;;;6.03;;
45114;SDS011;30877;43.706;10.780;2023-03-05T07:39:22;9.85;;;6.05;;
45114;SDS011;30877;43.706;10.780;2023-03-05T07:41:50;8.40;;;6.25;;
45114;SDS011;30877;43.706;10.780;2023-03-05T07:44:28;9.65;;;6.50;;
45114;SDS011;30877;43.706;10.780;2023-03-05T07:46:57;10.88;;;6.28;;
45114;SDS011;30877;43.706;10.780;2023-03-05T07:49:33;9.13;;;6.65;;
45114;SDS011;30877;43.706;10.780;2023-03-05T07:52:01;12.30;;;6.75;;
45114;SDS011;30877;43.706;10.780;2023-03-05T07:54:29;10.93;;;6.40;;
45114;SDS011;30877;43.706;10.780;2023-03-05T07:56:57;10.68;;;7.50;;
45114;SDS011;30877;43.706;10.780;2023-03-05T07:59:25;9.23;;;6.05;;
45114;SDS011;30877;43.706;10.780;2023-03-05T08:01:54;12.05;;;6.80;;
45114;SDS011;30877;43.706;10.780;2023-03-05T08:04:23;10.50;;;5.75;;
45114;SDS011;30877;43.706;10.780;2023-03-05T08:06:51;9.27;;;6.10;;
45114;SDS011;30877;43.706;10.780;2023-03-05T08:09:19;9.23;;;6.00;;
45114;SDS011;30877;43.706;10.780;2023-03-05T08:11:47;9.18;;;6.10;;
45114;SDS011;30877;43.706;10.780;2023-03-05T08:14:15;8.00;;;5.88;;
45114;SDS011;30877;43.706;10.780;2023-03-05T08:16:43;10.43;;;6.72;;
45114;SDS011;30877;43.706;10.780;2023-03-05T08:19:17;8.95;;;5.85;;
45114;SDS011;30877;43.706;10.780;2023-03-05T08:21:46;10.63;;;6.35;;
45114;SDS011;30877;43.706;10.780;2023-03-05T08:24:14;9.15;;;6.53;;
45114;SDS011;30877;43.706;10.780;2023-03-05T08:26:42;8.88;;;6.40;;
45114;SDS011;30877;43.706;10.780;2023-03-05T08:29:10;10.02;;;6.75;;
45114;SDS011;30877;43.706;10.780;2023-03-05T08:31:38;8.60;;;6.28;;
45114;SDS011;30877;43.706;10.780;2023-03-05T08:34:10;9.65;;;6.10;;
45114;SDS011;30877;43.706;10.780;2023-03-05T08:36:40;12.82;;;6.88;;
45114;SDS011;30877;43.706;10.780;2023-03-05T08:39:08;9.43;;;6.75;;
45114;SDS011;30877;43.706;10.780;2023-03-05T08:41:36;10.75;;;6.97;;
45114;SDS011;30877;43.706;10.780;2023-03-05T08:44:04;10.23;;;7.10;;
45114;SDS011;30877;43.706;10.780;2023-03-05T08:46:32;9.70;;;7.05;;
45114;SDS011;30877;43.706;10.780;2023-03-05T08:49:00;8.68;;;6.35;;
45114;SDS011;30877;43.706;10.780;2023-03-05T08:51:29;9.18;;;6.00;;
45114;SDS011;30877;43.706;10.780;2023-03-05T08:53:58;8.77;;;6.60;;
45114;SDS011;30877;43.706;10.780;2023-03-05T08:56:27;8.85;;;6.70;;
45114;SDS011;30877;43.706;10.780;2023-03-05T08:58:57;11.13;;;7.85;;
45114;SDS011;30877;43.706;10.780;2023-03-05T09:01:25;9.73;;;6.45;;
45114;SDS011;30877;43.706;10.780;2023-03-05T09:03:53;11.40;;;7.22;;
45114;SDS011;30877;43.706;10.780;2023-03-05T09:06:22;10.82;;;8.13;;
45114;SDS011;30877;43.706;10.780;2023-03-05T09:08:50;13.38;;;7.50;;
45114;SDS011;30877;43.706;10.780;2023-03-05T09:11:20;10.88;;;7.85;;
45114;SDS011;30877;43.706;10.780;2023-03-05T09:13:48;11.85;;;8.68;;
45114;SDS011;30877;43.706;10.780;2023-03-05T09:16:17;11.85;;;7.93;;
45114;SDS011;30877;43.706;10.780;2023-03-05T09:18:46;13.82;;;8.55;;
45114;SDS011;30877;43.706;10.780;2023-03-05T09:21:15;16.00;;;8.07;;
45114;SDS011;30877;43.706;10.780;2023-03-05T09:23:44;13.57;;;8.75;;
45114;SDS011;30877;43.706;10.780;2023-03-05T09:26:13;17.48;;;9.25;;
45114;SDS011;30877;43.706;10.780;2023-03-05T09:28:46;11.80;;;7.65;;
45114;SDS011;30877;43.706;10.780;2023-03-05T09:31:15;11.00;;;8.45;;
45114;SDS011;30877;43.706;10.780;2023-03-05T09:33:43;12.40;;;8.05;;
45114;SDS011;30877;43.706;10.780;2023-03-05T09:36:17;14.60;;;8.50;;
45114;SDS011;30877;43.706;10.780;2023-03-05T09:38:47;14.85;;;8.32;;
45114;SDS011;30877;43.706;10.780;2023-03-05T09:41:16;12.32;;;8.68;;
45114;SDS011;30877;43.706;10.780;2023-03-05T09:43:56;16.65;;;10.00;;
45114;SDS011;30877;43.706;10.780;2023-03-05T09:46:35;14.88;;;10.02;;
45114;SDS011;30877;43.706;10.780;2023-03-05T09:49:13;15.35;;;9.65;;
45114;SDS011;30877;43.706;10.780;2023-03-05T09:51:44;15.50;;;9.15;;
45114;SDS011;30877;43.706;10.780;2023-03-05T09:54:16;14.20;;;9.93;;
45114;SDS011;30877;43.706;10.780;2023-03-05T09:56:47;14.57;;;9.45;;
45114;SDS011;30877;43.706;10.780;2023-03-05T09:59:22;14.02;;;9.50;;
45114;SDS011;30877;43.706;10.780;2023-03-05T10:01:58;19.17;;;10.45;;
45114;SDS011;30877;43.706;10.780;2023-03-05T10:04:32;16.48;;;9.98;;
45114;SDS011;30877;43.706;10.780;2023-03-05T10:07:11;15.35;;;9.93;;
45114;SDS011;30877;43.706;10.780;2023-03-05T10:09:44;17.60;;;9.18;;
45114;SDS011;30877;43.706;10.780;2023-03-05T10:12:18;12.23;;;9.70;;
45114;SDS011;30877;43.706;10.780;2023-03-05T10:14:55;12.45;;;8.95;;
45114;SDS011;30877;43.706;10.780;2023-03-05T10:17:40;11.98;;;9.13;;
45114;SDS011;30877;43.706;10.780;2023-03-05T10:23:21;11.85;;;8.50;;
45114;SDS011;30877;43.706;10.780;2023-03-05T10:25:55;14.68;;;7.97;;
45114;SDS011;30877;43.706;10.780;2023-03-05T10:28:42;13.35;;;9.02;;
45114;SDS011;30877;43.706;10.780;2023-03-05T10:31:21;12.48;;;8.40;;
45114;SDS011;30877;43.706;10.780;2023-03-05T10:34:25;13.38;;;8.40;;
45114;SDS011;30877;43.706;10.780;2023-03-05T10:37:06;12.63;;;9.20;;
45114;SDS011;30877;43.706;10.780;2023-03-05T10:39:51;11.38;;;8.15;;
45114;SDS011;30877;43.706;10.780;2023-03-05T10:42:29;13.68;;;8.82;;
45114;SDS011;30877;43.706;10.780;2023-03-05T10:45:08;11.50;;;8.97;;
45114;SDS011;30877;43.706;10.780;2023-03-05T10:47:43;13.27;;;8.75;;
45114;SDS011;30877;43.706;10.780;2023-03-05T10:50:17;11.07;;;7.80;;
45114;SDS011;30877;43.706;10.780;2023-03-05T10:52:46;14.00;;;8.00;;
45114;SDS011;30877;43.706;10.780;2023-03-05T10:55:20;12.60;;;7.97;;
45114;SDS011;30877;43.706;10.780;2023-03-05T10:57:49;12.02;;;7.95;;
45114;SDS011;30877;43.706;10.780;2023-03-05T11:00:18;15.27;;;8.20;;
45114;SDS011;30877;43.706;10.780;2023-03-05T11:02:53;13.23;;;8.25;;
45114;SDS011;30877;43.706;10.780;2023-03-05T11:05:35;11.63;;;7.47;;
45114;SDS011;30877;43.706;10.780;2023-03-05T11:08:27;10.65;;;7.38;;
45114;SDS011;30877;43.706;10.780;2023-03-05T11:11:04;10.65;;;7.85;;
45114;SDS011;30877;43.706;10.780;2023-03-05T11:16:28;15.88;;;8.00;;
45114;SDS011;30877;43.706;10.780;2023-03-05T11:19:14;12.82;;;7.57;;
45114;SDS011;30877;43.706;10.780;2023-03-05T11:24:42;17.05;;;10.07;;
45114;SDS011;30877;43.706;10.780;2023-03-05T11:27:23;16.58;;;8.68;;
45114;SDS011;30877;43.706;10.780;2023-03-05T11:29:57;15.85;;;8.73;;
45114;SDS011;30877;43.706;10.780;2023-03-05T11:35:28;19.38;;;9.63;;
45114;SDS011;30877;43.706;10.780;2023-03-05T11:38:00;18.00;;;8.65;;
45114;SDS011;30877;43.706;10.780;2023-03-05T11:40:30;14.25;;;9.25;;
45114;SDS011;30877;43.706;10.780;2023-03-05T11:43:02;19.52;;;9.80;;
45114;SDS011;30877;43.706;10.780;2023-03-05T11:45:31;24.13;;;10.05;;
45114;SDS011;30877;43.706;10.780;2023-03-05T11:48:03;19.25;;;8.93;;
45114;SDS011;30877;43.706;10.780;2023-03-05T11:50:36;19.23;;;10.30;;
45114;SDS011;30877;43.706;10.780;2023-03-05T11:53:10;15.35;;;8.65;;
45114;SDS011;30877;43.706;10.780;2023-03-05T11:55:41;18.17;;;8.63;;
45114;SDS011;30877;43.706;10.780;2023-03-05T11:58:19;17.77;;;8.23;;
45114;SDS011;30877;43.706;10.780;2023-03-05T12:00:54;17.58;;;8.73;;
45114;SDS011;30877;43.706;10.780;2023-03-05T12:03:24;20.55;;;9.48;;
45114;SDS011;30877;43.706;10.780;2023-03-05T12:05:59;17.13;;;9.35;;
45114;SDS011;30877;43.706;10.780;2023-03-05T12:08:36;16.10;;;8.55;;
45114;SDS011;30877;43.706;10.780;2023-03-05T12:11:11;16.45;;;9.55;;
45114;SDS011;30877;43.706;10.780;2023-03-05T12:13:44;13.65;;;8.60;;
45114;SDS011;30877;43.706;10.780;2023-03-05T12:16:17;18.75;;;9.70;;
45114;SDS011;30877;43.706;10.780;2023-03-05T12:18:57;21.77;;;9.90;;
45114;SDS011;30877;43.706;10.780;2023-03-05T12:21:38;20.75;;;8.88;;
45114;SDS011;30877;43.706;10.780;2023-03-05T12:27:05;17.20;;;8.48;;
45114;SDS011;30877;43.706;10.780;2023-03-05T12:29:51;21.65;;;9.23;;
45114;SDS011;30877;43.706;10.780;2023-03-05T12:35:27;16.00;;;8.60;;
45114;SDS011;30877;43.706;10.780;2023-03-05T12:44:15;15.30;;;8.15;;
45114;SDS011;30877;43.706;10.780;2023-03-05T12:49:44;14.13;;;7.97;;
45114;SDS011;30877;43.706;10.780;2023-03-05T12:52:20;17.75;;;8.93;;
45114;SDS011;30877;43.706;10.780;2023-03-05T12:54:58;22.65;;;8.10;;
45114;SDS011;30877;43.706;10.780;2023-03-05T12:57:34;15.05;;;8.05;;
45114;SDS011;30877;43.706;10.780;2023-03-05T13:00:05;15.93;;;7.63;;
45114;SDS011;30877;43.706;10.780;2023-03-05T13:02:38;17.35;;;7.78;;
45114;SDS011;30877;43.706;10.780;2023-03-05T13:05:13;16.88;;;8.05;;
45114;SDS011;30877;43.706;10.780;2023-03-05T13:07:47;23.00;;;9.05;;
45114;SDS011;30877;43.706;10.780;2023-03-05T13:10:22;16.02;;;7.72;;
45114;SDS011;30877;43.706;10.780;2023-03-05T13:12:51;16.08;;;7.70;;
45114;SDS011;30877;43.706;10.780;2023-03-05T13:15:23;19.88;;;9.07;;
45114;SDS011;30877;43.706;10.780;2023-03-05T13:17:54;13.95;;;7.53;;
45114;SDS011;30877;43.706;10.780;2023-03-05T13:20:28;14.52;;;7.75;;
45114;SDS011;30877;43.706;10.780;2023-03-05T13:25:58;18.92;;;6.65;;
45114;SDS011;30877;43.706;10.780;2023-03-05T13:28:37;16.45;;;7.10;;
45114;SDS011;30877;43.706;10.780;2023-03-05T13:31:15;13.45;;;6.50;;
45114;SDS011;30877;43.706;10.780;2023-03-05T13:33:48;14.52;;;7.28;;
45114;SDS011;30877;43.706;10.780;2023-03-05T13:36:19;21.42;;;8.05;;
45114;SDS011;30877;43.706;10.780;2023-03-05T13:38:48;15.80;;;7.40;;
45114;SDS011;30877;43.706;10.780;2023-03-05T13:41:19;16.50;;;8.00;;
45114;SDS011;30877;43.706;10.780;2023-03-05T13:43:50;15.98;;;8.32;;
45114;SDS011;30877;43.706;10.780;2023-03-05T13:46:23;14.07;;;6.60;;
45114;SDS011;30877;43.706;10.780;2023-03-05T13:48:54;20.02;;;7.70;;
45114;SDS011;30877;43.706;10.780;2023-03-05T13:51:23;16.38;;;7.80;;
45114;SDS011;30877;43.706;10.780;2023-03-05T13:54:08;17.77;;;8.18;;
45114;SDS011;30877;43.706;10.780;2023-03-05T13:56:48;17.60;;;7.93;;
45114;SDS011;30877;43.706;10.780;2023-03-05T13:59:21;19.20;;;7.72;;
45114;SDS011;30877;43.706;10.780;2023-03-05T14:01:50;19.80;;;8.48;;
45114;SDS011;30877;43.706;10.780;2023-03-05T14:04:21;16.48;;;8.43;;
45114;SDS011;30877;43.706;10.780;2023-03-05T14:06:53;18.02;;;8.50;;
45114;SDS011;30877;43.706;10.780;2023-03-05T14:09:25;14.25;;;7.57;;
45114;SDS011;30877;43.706;10.780;2023-03-05T14:11:58;17.05;;;8.15;;
45114;SDS011;30877;43.706;10.780;2023-03-05T14:14:30;20.70;;;8.30;;
45114;SDS011;30877;43.706;10.780;2023-03-05T14:17:20;18.92;;;8.95;;
45114;SDS011;30877;43.706;10.780;2023-03-05T14:22:59;21.15;;;8.95;;
45114;SDS011;30877;43.706;10.780;2023-03-05T14:25:30;17.27;;;8.13;;
45114;SDS011;30877;43.706;10.780;2023-03-05T14:28:03;20.70;;;8.45;;
45114;SDS011;30877;43.706;10.780;2023-03-05T14:30:32;16.50;;;8.38;;
45114;SDS011;30877;43.706;10.780;2023-03-05T14:33:02;19.13;;;8.70;;
45114;SDS011;30877;43.706;10.780;2023-03-05T14:35:31;18.25;;;8.45;;
45114;SDS011;30877;43.706;10.780;2023-03-05T14:38:03;18.98;;;9.02;;
45114;SDS011;30877;43.706;10.780;2023-03-05T14:40:35;18.13;;;8.70;;
45114;SDS011;30877;43.706;10.780;2023-03-05T14:43:07;19.75;;;9.23;;
45114;SDS011;30877;43.706;10.780;2023-03-05T14:45:38;21.23;;;10.27;;
45114;SDS011;30877;43.706;10.780;2023-03-05T14:48:11;22.92;;;8.73;;
45114;SDS011;30877;43.706;10.780;2023-03-05T14:50:42;25.13;;;10.55;;
45114;SDS011;30877;43.706;10.780;2023-03-05T14:53:12;19.40;;;9.27;;
45114;SDS011;30877;43.706;10.780;2023-03-05T14:55:42;19.85;;;9.23;;
45114;SDS011;30877;43.706;10.780;2023-03-05T14:58:16;15.85;;;9.63;;
45114;SDS011;30877;43.706;10.780;2023-03-05T15:00:48;19.48;;;9.48;;
45114;SDS011;30877;43.706;10.780;2023-03-05T15:03:18;21.30;;;9.45;;
45114;SDS011;30877;43.706;10.780;2023-03-05T15:05:48;21.08;;;9.65;;
45114;SDS011;30877;43.706;10.780;2023-03-05T15:08:19;13.98;;;8.32;;
45114;SDS011;30877;43.706;10.780;2023-03-05T15:10:49;17.13;;;8.32;;
45114;SDS011;30877;43.706;10.780;2023-03-05T15:13:20;22.60;;;10.00;;
45114;SDS011;30877;43.706;10.780;2023-03-05T15:15:50;16.23;;;8.80;;
45114;SDS011;30877;43.706;10.780;2023-03-05T15:18:19;18.85;;;8.57;;